CheckWX is a tool to help pilots better visualize weather data.  It is not intended as a substitute for an official pre-flight weather briefing.

08:15:02 UTC

LICA TAF
Lamezia Terme Airport
Lamezia Terme, Italy
TAF LICA 220500Z 2206/2306 VRB05KT 9999 SCT030 BECMG 2208/2210 27010KT BECMG 2217/2219 VRB05KT

Feb-22@
06:00 UTC

Feb-22 @ 06:00 UTC

Feb-22@
08:00 UTC

Feb-22 @ 08:00 UTC

TAF LICA 220500Z 2206/2306 VRB05KT 9999 SCT030

Expired

Wind
  • Variable at 5 KTS
Cloud Levels
  • Scattered at 3,000' AGL

Feb-22@
08:00 UTC

Feb-22 @ 08:00 UTC

Feb-22@
17:00 UTC

Feb-22 @ 17:00 UTC

BECMG 2208/2210 27010KT

Becoming

BecomingConditions expected by Fri, Feb 22, 2019 @ 10:00 UTC

Wind
  • 270° at 10 KTS
Cloud Levels
  • Scattered at 3,000' AGL

Feb-22@
17:00 UTC

Feb-22 @ 17:00 UTC

Feb-23@
06:00 UTC

Feb-23 @ 06:00 UTC

BECMG 2217/2219 VRB05KT

Becoming

BecomingConditions expected by Fri, Feb 22, 2019 @ 19:00 UTC

Wind
  • Variable at 5 KTS
Cloud Levels
  • Scattered at 3,000' AGL